Malmesbury, United Kingdom
Current Conditions -  °F | °C
As of 9:58 AM on Sunday 23 Nov 2014 (Local Time) from EGVA Reporting Station
Clear Clear  
Wind Chill: 44°   Ceiling: Unl
Heat Index: 46°   Visibility: 6mi
Dew Point: 44°   Wind: 5mph
Humidity: 93%   Direction: 30°NNE
Pressure: 30.03"   Gusts: NA
Location:  51.58°N, 2.1°W
Report Text: EGVA 230958Z AUTO 03004KT 9999 CLR 08/07 A3003 RMK AO2 SLP175 P0000 T00770067 $
Loading
Personal Weather Stations






























Interactive Weather Map New forecast layout! Learn more

10-Day Weather Forecast

Advertisements
Track Severe Weather on mobile